createdAt,value
2022-11-27T00:00:49.558Z,0.80
2022-11-27T00:06:38.008Z,0.63
2022-11-27T00:12:27.956Z,1.13
2022-11-27T00:18:14.744Z,0.70
2022-11-27T00:24:04.303Z,0.88
2022-11-27T00:29:51.019Z,0.55
2022-11-27T00:35:39.126Z,0.60
2022-11-27T00:41:29.436Z,0.55
2022-11-27T00:47:18.192Z,0.82
2022-11-27T00:53:04.879Z,0.90
2022-11-27T00:58:52.709Z,0.80
2022-11-27T01:04:39.649Z,0.73
2022-11-27T01:10:26.574Z,0.65
2022-11-27T01:16:20.162Z,1.13
2022-11-27T01:22:07.081Z,0.57
2022-11-27T01:27:53.764Z,0.60
2022-11-27T01:33:40.611Z,0.75
2022-11-27T01:39:27.462Z,0.60
2022-11-27T01:45:16.201Z,1.00
2022-11-27T01:51:02.870Z,1.20
2022-11-27T01:56:55.484Z,0.82
2022-11-27T02:08:32.812Z,0.80
2022-11-27T02:14:57.872Z,0.88
2022-11-27T02:20:54.810Z,0.65
2022-11-27T02:26:45.022Z,0.63
2022-11-27T02:32:40.251Z,0.38
2022-11-27T02:38:33.988Z,0.50
2022-11-27T02:44:22.584Z,0.55
2022-11-27T02:56:33.364Z,0.60
2022-11-27T03:02:26.568Z,0.50
2022-11-27T03:08:33.270Z,0.85
2022-11-27T03:14:24.492Z,0.80
2022-11-27T03:20:30.971Z,0.40
2022-11-27T03:26:20.462Z,0.82
2022-11-27T03:32:08.844Z,0.65
2022-11-27T03:37:56.352Z,0.52
2022-11-27T03:44:01.433Z,0.50
2022-11-27T03:50:07.005Z,0.38
2022-11-27T03:56:11.904Z,0.68
2022-11-27T04:01:58.629Z,0.47
2022-11-27T04:07:51.604Z,0.70
2022-11-27T04:13:38.366Z,0.52
2022-11-27T04:19:34.142Z,0.40
2022-11-27T04:25:21.140Z,0.30
2022-11-27T04:31:11.376Z,0.45
2022-11-27T04:37:01.036Z,0.20
2022-11-27T04:42:52.361Z,0.70
2022-11-27T04:48:39.371Z,0.40
2022-11-27T04:54:30.213Z,0.60
2022-11-27T05:00:17.861Z,0.40
2022-11-27T05:06:12.265Z,0.75
2022-11-27T05:11:59.248Z,0.30
2022-11-27T05:17:45.981Z,0.30
2022-11-27T05:23:33.576Z,0.47
2022-11-27T05:29:27.376Z,0.50
2022-11-27T05:35:14.400Z,0.60
2022-11-27T05:41:01.086Z,0.43
2022-11-27T05:46:47.802Z,0.40
2022-11-27T05:52:34.777Z,0.40
2022-11-27T05:58:21.520Z,0.45
2022-11-27T06:04:11.229Z,0.28
2022-11-27T06:09:58.025Z,0.57
2022-11-27T06:15:44.919Z,0.50
2022-11-27T06:21:31.572Z,0.40
2022-11-27T06:27:18.329Z,0.60
2022-11-27T06:33:05.087Z,0.30
2022-11-27T06:38:51.948Z,0.40
2022-11-27T06:44:38.935Z,0.95
2022-11-27T06:50:27.059Z,1.27
2022-11-27T06:56:16.890Z,0.70
2022-11-27T07:02:03.681Z,0.60
2022-11-27T07:07:50.551Z,4.03
2022-11-27T07:13:37.556Z,0.50
2022-11-27T07:19:24.467Z,0.70
2022-11-27T07:25:11.187Z,0.50
2022-11-27T07:30:58.929Z,0.80
2022-11-27T07:36:45.579Z,0.75
2022-11-27T07:42:39.641Z,0.73
2022-11-27T07:48:26.496Z,0.85
2022-11-27T07:54:13.084Z,2.95
2022-11-27T07:59:59.756Z,0.93
2022-11-27T08:05:46.408Z,1.30
2022-11-27T08:11:37.048Z,1.27
2022-11-27T08:17:23.687Z,2.60
2022-11-27T08:23:10.314Z,2.08
2022-11-27T08:28:58.343Z,2.15
2022-11-27T08:34:45.417Z,1.80
2022-11-27T08:40:35.363Z,1.75
2022-11-27T08:46:22.600Z,1.70
2022-11-27T08:52:10.454Z,1.75
2022-11-27T08:57:57.277Z,1.88
2022-11-27T09:03:44.331Z,2.10
2022-11-27T09:09:33.761Z,1.85
2022-11-27T09:15:20.417Z,1.50
2022-11-27T09:21:09.887Z,1.35
2022-11-27T09:26:56.450Z,4.78
2022-11-27T09:32:43.235Z,1.80
2022-11-27T09:38:31.151Z,1.55
2022-11-27T09:44:44.458Z,2.67
2022-11-27T09:50:42.576Z,1.88
2022-11-27T09:56:30.597Z,1.98
2022-11-27T10:02:41.909Z,1.60
2022-11-27T10:08:48.218Z,1.83
2022-11-27T10:14:55.765Z,2.00
2022-11-27T10:20:49.811Z,1.70
2022-11-27T10:26:54.196Z,1.50
2022-11-27T10:32:56.089Z,1.33
2022-11-27T10:38:49.172Z,1.63
2022-11-27T10:44:44.250Z,1.55
2022-11-27T10:50:35.033Z,1.95
2022-11-27T10:56:33.024Z,1.73
2022-11-27T11:02:33.404Z,1.85
2022-11-27T11:08:21.027Z,1.40
2022-11-27T11:14:26.019Z,1.35
2022-11-27T11:20:24.319Z,1.17
2022-11-27T11:26:33.560Z,0.93
2022-11-27T11:32:23.659Z,0.85
2022-11-27T11:38:21.235Z,1.63
2022-11-27T11:44:23.031Z,1.33
2022-11-27T11:50:13.842Z,2.13
2022-11-27T11:56:29.897Z,1.40
2022-11-27T12:02:16.638Z,1.30
2022-11-27T12:08:40.047Z,1.75
2022-11-27T12:14:47.496Z,1.50
2022-11-27T12:20:47.439Z,1.23
2022-11-27T12:26:49.478Z,2.60
2022-11-27T12:33:22.717Z,2.20
2022-11-27T12:39:46.889Z,1.65
2022-11-27T12:45:42.132Z,1.70
2022-11-27T12:51:49.373Z,1.40
2022-11-27T12:58:01.828Z,1.80
2022-11-27T13:04:16.806Z,2.70
2022-11-27T13:10:34.075Z,1.67
2022-11-27T13:17:00.478Z,1.85
2022-11-27T13:22:48.512Z,2.97
2022-11-27T13:28:41.484Z,2.25
2022-11-27T13:34:30.936Z,3.17
2022-11-27T13:40:24.229Z,2.83
2022-11-27T13:46:19.961Z,3.72
2022-11-27T13:52:14.144Z,3.53
2022-11-27T13:58:03.612Z,2.50
2022-11-27T14:03:53.257Z,3.75
2022-11-27T14:09:48.334Z,2.33
2022-11-27T14:15:37.634Z,2.47
2022-11-27T14:21:40.996Z,2.60
2022-11-27T14:27:36.089Z,3.05
2022-11-27T14:33:25.198Z,1.73
2022-11-27T14:39:23.120Z,1.90
2022-11-27T14:45:16.137Z,3.47
2022-11-27T14:51:03.458Z,2.65
2022-11-27T14:56:50.969Z,2.80
2022-11-27T15:02:38.885Z,5.75
2022-11-27T15:08:28.687Z,3.53
2022-11-27T15:14:16.504Z,3.25
2022-11-27T15:20:12.238Z,2.58
2022-11-27T15:26:15.197Z,2.40
2022-11-27T15:32:04.814Z,2.30
2022-11-27T15:37:53.019Z,2.35
2022-11-27T15:43:40.329Z,3.00
2022-11-27T15:49:27.812Z,2.75
2022-11-27T15:55:19.047Z,2.25
2022-11-27T16:01:07.000Z,2.13
2022-11-27T16:06:54.106Z,2.20
2022-11-27T16:12:41.094Z,2.53
2022-11-27T16:18:27.973Z,2.50
2022-11-27T16:24:15.130Z,3.10
2022-11-27T16:30:02.059Z,3.63
2022-11-27T16:35:49.010Z,4.15
2022-11-27T16:41:39.158Z,4.00
2022-11-27T16:47:30.563Z,3.65
2022-11-27T16:53:20.923Z,3.70
2022-11-27T16:59:09.949Z,3.53
2022-11-27T17:05:00.210Z,2.83
2022-11-27T17:10:47.034Z,3.38
2022-11-27T17:16:35.405Z,2.65
2022-11-27T17:22:24.653Z,3.22
2022-11-27T17:28:12.709Z,3.05
2022-11-27T17:34:00.368Z,3.75
2022-11-27T17:39:50.469Z,2.35
2022-11-27T17:45:41.786Z,2.70
2022-11-27T17:51:41.370Z,2.75
2022-11-27T17:57:32.231Z,3.15
2022-11-27T18:03:22.131Z,5.03
2022-11-27T18:09:09.002Z,4.90
2022-11-27T18:15:12.167Z,3.30
2022-11-27T18:21:19.803Z,2.83
2022-11-27T18:27:08.649Z,2.92
2022-11-27T18:32:58.816Z,2.95
2022-11-27T18:38:46.466Z,3.05
2022-11-27T18:44:39.649Z,2.85
2022-11-27T18:50:31.205Z,3.05
2022-11-27T18:56:24.415Z,3.53
2022-11-27T19:02:13.968Z,3.05
2022-11-27T19:08:10.369Z,3.42
2022-11-27T19:13:58.165Z,3.45
2022-11-27T19:20:00.273Z,3.50
2022-11-27T19:25:49.092Z,3.80
2022-11-27T19:31:39.435Z,3.03
2022-11-27T19:37:34.445Z,3.83
2022-11-27T19:43:22.365Z,5.00
2022-11-27T19:49:13.744Z,3.75
2022-11-27T19:55:00.639Z,3.10
2022-11-27T20:00:48.215Z,2.33
2022-11-27T20:06:37.791Z,2.40
2022-11-27T20:12:24.999Z,2.65
2022-11-27T20:18:12.140Z,2.03
2022-11-27T20:23:59.019Z,2.70
2022-11-27T20:29:48.976Z,3.50
2022-11-27T20:35:38.155Z,2.85
2022-11-27T20:41:26.651Z,2.65
2022-11-27T20:47:15.537Z,3.05
2022-11-27T20:53:10.975Z,2.67
2022-11-27T20:59:05.017Z,2.63
2022-11-27T21:04:52.136Z,2.60
2022-11-27T21:10:39.179Z,3.08
2022-11-27T21:16:32.326Z,3.22
2022-11-27T21:22:28.602Z,2.50
2022-11-27T21:28:23.778Z,2.10
2022-11-27T21:34:18.251Z,2.47
2022-11-27T21:40:17.430Z,2.40
2022-11-27T21:46:19.762Z,3.00
2022-11-27T21:52:11.856Z,2.83
2022-11-27T21:58:00.691Z,2.97
2022-11-27T22:03:57.475Z,2.50
2022-11-27T22:09:44.229Z,2.85
2022-11-27T22:16:08.420Z,3.03
2022-11-27T22:21:57.712Z,3.05
2022-11-27T22:27:44.702Z,3.40
2022-11-27T22:33:43.266Z,3.55
2022-11-27T22:39:30.631Z,2.80
2022-11-27T22:45:20.227Z,3.10
2022-11-27T22:51:13.720Z,3.75
2022-11-27T22:57:00.937Z,3.55
2022-11-27T23:02:50.449Z,3.05
2022-11-27T23:08:46.111Z,3.17
2022-11-27T23:14:35.168Z,3.75
2022-11-27T23:28:23.481Z,3.92
2022-11-27T23:34:13.716Z,4.20
2022-11-27T23:40:00.688Z,4.18
2022-11-27T23:45:48.967Z,4.13
2022-11-27T23:51:36.657Z,3.80
2022-11-27T23:57:23.736Z,4.30
